Creola, Alabama
Current Conditions -  °F | °C
As of 10:01 PM on Sunday 23 Nov 2014 (Local Time) from KBFM Reporting Station
Scattered Clouds Scattered Clouds  
Wind Chill: 70°   Ceiling: Unl
Heat Index: 70°   Visibility: 10mi
Dew Point: 67°   Wind: 7mph
Humidity: 90%   Direction: 190°S
Pressure: 29.78"   Gusts: NA
Location:  30.89°N, 88.04°W
Report Text: KBFM 240401Z AUTO 19006KT 10SM SCT011 21/19 A2978 RMK AO2 T02110194
Loading
Personal Weather Stations






























Interactive Weather Map New forecast layout! Learn more

10-Day Weather Forecast

Advertisements
Track Severe Weather on mobile